Time;durP1;ratioP1;P1;durP2;ratioP2;P2;SDS_P1;SDS_P2;PMS_P1;PMS_P2;Temp;Humidity;BMP_temperature;BMP_pressure;BME280_temperature;BME280_humidity;BME280_pressure;Samples;Min_cycle;Max_cycle;Signal;HPM_P1;HPM_P2
2021/01/23 00:02:22;;;;;;;111.33;46.97;;;;;;;0.55;82.27;99070.50;119130;1157;65753;-79
2021/01/23 00:04:49;;;;;;;129.10;49.00;;;;;;;0.55;81.65;99067.05;118613;1157;65136;-81
2021/01/23 00:07:15;;;;;;;127.83;48.80;;;;;;;0.57;82.34;99076.39;119026;1157;65191;-81
2021/01/23 00:09:56;;;;;;;114.62;43.50;;;;;;;0.59;82.39;99063.98;118607;1157;65529;-77
2021/01/23 00:12:22;;;;;;;129.27;48.43;;;;;;;0.63;81.78;99059.30;118618;1157;65164;-80
2021/01/23 00:15:30;;;;;;;127.65;47.80;;;;;;;0.66;82.38;99058.16;118369;1157;65132;-79
2021/01/23 00:18:09;;;;;;;131.47;50.67;;;;;;;0.71;81.97;99055.94;118665;1157;65074;-78
2021/01/23 00:20:35;;;;;;;120.00;49.30;;;;;;;0.71;82.15;99051.53;118332;1157;65193;-80
2021/01/23 00:23:02;;;;;;;126.77;48.73;;;;;;;0.68;81.54;99051.84;118549;1157;65080;-82
2021/01/23 00:25:28;;;;;;;112.32;47.05;;;;;;;0.68;82.10;99046.63;118826;1157;65153;-78
2021/01/23 00:27:54;;;;;;;122.50;49.13;;;;;;;0.68;81.51;99045.79;118880;1157;65874;-78
2021/01/23 00:30:21;;;;;;;127.50;51.20;;;;;;;0.70;82.23;99042.08;118524;1157;65123;-79
2021/01/23 00:32:47;;;;;;;120.82;48.48;;;;;;;0.74;81.68;99045.19;118873;1157;65107;-83
2021/01/23 00:35:14;;;;;;;122.30;48.60;;;;;;;0.74;81.27;99045.99;118803;1157;65127;-79
2021/01/23 00:37:41;;;;;;;132.17;50.93;;;;;;;0.76;81.31;99048.46;118957;1157;66208;-80
2021/01/23 00:40:08;;;;;;;115.50;48.45;;;;;;;0.74;81.61;99035.55;119196;1157;65264;-83
2021/01/23 00:42:34;;;;;;;117.53;45.40;;;;;;;0.74;81.26;99039.96;118725;1157;63971;-78
2021/01/23 00:45:02;;;;;;;126.50;48.17;;;;;;;0.74;81.57;99030.34;118441;1157;65165;-79
2021/01/23 00:47:29;;;;;;;121.13;48.47;;;;;;;0.77;81.37;99035.27;118522;1157;65086;-83
2021/01/23 00:49:55;;;;;;;116.37;48.13;;;;;;;0.74;81.76;99030.34;118717;1157;65193;-80
2021/01/23 00:52:21;;;;;;;131.47;48.63;;;;;;;0.68;80.74;99038.80;118595;1157;65153;-79
2021/01/23 00:54:48;;;;;;;124.20;50.27;;;;;;;0.64;80.95;99040.08;118733;1157;65114;-82
2021/01/23 00:57:14;;;;;;;125.17;46.43;;;;;;;0.63;82.21;99035.00;118855;1157;65157;-78
2021/01/23 00:59:40;;;;;;;123.47;48.00;;;;;;;0.61;81.72;99038.56;118567;1157;65114;-79
2021/01/23 01:02:06;;;;;;;123.97;47.60;;;;;;;0.63;81.86;99038.42;118615;1157;65164;-79
2021/01/23 01:04:32;;;;;;;119.63;49.03;;;;;;;0.65;81.87;99041.70;118338;1157;65211;-80
2021/01/23 01:06:59;;;;;;;146.80;49.57;;;;;;;0.67;81.54;99039.76;118777;1157;65178;-81
2021/01/23 01:09:25;;;;;;;131.37;49.88;;;;;;;0.68;81.59;99048.39;118660;1155;65153;-82
2021/01/23 01:11:51;;;;;;;115.00;44.63;;;;;;;0.65;81.42;99046.92;118851;1157;65461;-80
2021/01/23 01:14:17;;;;;;;110.80;44.53;;;;;;;0.62;81.78;99052.45;118676;1157;65137;-83
2021/01/23 01:16:43;;;;;;;118.07;49.53;;;;;;;0.60;82.34;99049.98;118767;1157;65130;-80
2021/01/23 01:19:11;;;;;;;122.27;49.17;;;;;;;0.61;81.87;99050.80;118684;1157;65167;-79
2021/01/23 01:25:11;;;;;;;136.67;51.50;;;;;;;0.55;81.30;99061.83;119029;1157;65576;-79
2021/01/23 01:27:37;;;;;;;118.47;47.83;;;;;;;0.51;81.19;99050.06;118507;1157;65203;-79
2021/01/23 01:30:04;;;;;;;142.40;51.10;;;;;;;0.51;81.63;99052.67;118371;1157;65133;-82
2021/01/23 01:32:31;;;;;;;128.97;54.30;;;;;;;0.52;82.06;99046.50;118743;1157;65071;-79
2021/01/23 01:34:58;;;;;;;121.27;47.50;;;;;;;0.52;81.82;99051.72;118497;1157;65127;-78
2021/01/23 01:37:24;;;;;;;130.43;46.97;;;;;;;0.52;82.53;99046.50;118419;1157;65846;-83
2021/01/23 01:39:50;;;;;;;121.43;48.70;;;;;;;0.56;81.94;99053.05;118897;1157;65215;-78
2021/01/23 01:42:16;;;;;;;136.63;48.57;;;;;;;0.56;82.50;99042.61;118715;1157;66339;-78
2021/01/23 01:44:42;;;;;;;125.80;47.50;;;;;;;0.59;82.09;99048.33;118595;1157;65150;-82
2021/01/23 01:47:09;;;;;;;144.07;53.57;;;;;;;0.63;82.55;99038.42;119241;1157;65175;-83
2021/01/23 01:49:36;;;;;;;116.20;49.10;;;;;;;0.66;82.53;99042.51;118518;1157;65057;-78
2021/01/23 01:52:03;;;;;;;130.03;49.33;;;;;;;0.65;82.83;99039.09;118536;1157;65311;-80
2021/01/23 01:54:30;;;;;;;118.60;46.47;;;;;;;0.65;82.46;99040.89;118504;1157;65162;-81
2021/01/23 01:56:57;;;;;;;123.43;46.07;;;;;;;0.63;82.66;99046.25;118550;1157;65766;-80
2021/01/23 01:59:23;;;;;;;126.17;46.93;;;;;;;0.61;82.13;99037.75;118674;1157;65175;-85
2021/01/23 02:02:00;;;;;;;132.52;53.75;;;;;;;0.61;82.49;99041.17;118819;1157;65027;-78
2021/01/23 02:04:50;;;;;;;124.67;50.63;;;;;;;0.64;82.92;99045.30;118405;1157;65053;-78
2021/01/23 02:07:28;;;;;;;115.70;47.30;;;;;;;0.63;82.21;99046.25;118464;1157;65015;-79
2021/01/23 02:10:09;;;;;;;123.93;49.57;;;;;;;0.60;82.75;99043.95;118566;1157;65162;-79
2021/01/23 02:12:53;;;;;;;115.53;47.63;;;;;;;0.58;82.37;99051.11;118744;1157;65101;-79
2021/01/23 02:15:23;;;;;;;122.97;49.00;;;;;;;0.54;81.90;99044.55;118655;1157;65262;-82
2021/01/23 02:18:03;;;;;;;137.27;49.13;;;;;;;0.53;82.10;99059.40;119372;1157;65367;-79
2021/01/23 02:21:04;;;;;;;133.47;47.07;;;;;;;0.50;82.88;99053.66;118537;1156;65138;-82
2021/01/23 02:23:32;;;;;;;127.37;47.73;;;;;;;0.49;82.59;99063.28;118673;1157;65229;-79
2021/01/23 02:26:18;;;;;;;128.07;45.93;;;;;;;0.50;82.45;99059.69;118737;1157;65139;-79
2021/01/23 02:28:59;;;;;;;123.30;45.93;;;;;;;0.51;83.18;99050.06;118402;1157;65135;-78
2021/01/23 02:31:41;;;;;;;142.70;48.07;;;;;;;0.48;82.49;99051.19;118584;1157;65163;-81
2021/01/23 02:34:10;;;;;;;116.20;43.97;;;;;;;0.51;82.58;99055.28;118992;1155;65100;-79
2021/01/23 02:36:48;;;;;;;115.60;44.47;;;;;;;0.49;82.55;99058.06;118711;1157;65156;-82
2021/01/23 02:39:19;;;;;;;139.50;47.77;;;;;;;0.50;83.00;99059.69;119172;1157;65900;-82
2021/01/23 02:41:46;;;;;;;115.67;42.57;;;;;;;0.52;83.21;99059.54;118814;1157;65072;-80
2021/01/23 02:44:14;;;;;;;130.05;43.85;;;;;;;0.53;82.80;99053.34;118684;1157;65153;-80
2021/01/23 02:46:40;;;;;;;120.27;42.80;;;;;;;0.58;83.29;99061.55;118562;1157;65069;-79
2021/01/23 02:49:27;;;;;;;139.30;46.17;;;;;;;0.59;83.03;99063.17;118607;1157;65654;-80
2021/01/23 02:52:23;;;;;;;128.10;44.37;;;;;;;0.59;83.08;99069.20;120005;1157;65082;-82
2021/01/23 02:55:06;;;;;;;143.60;46.77;;;;;;;0.59;82.61;99068.39;119608;1157;65104;-81
2021/01/23 02:57:33;;;;;;;135.90;43.90;;;;;;;0.59;83.16;99073.61;118563;1157;65321;-79
2021/01/23 03:00:06;;;;;;;125.90;43.87;;;;;;;0.57;82.63;99075.55;118557;1157;65195;-78
2021/01/23 03:02:36;;;;;;;109.23;41.57;;;;;;;0.56;83.44;99079.14;118329;1157;65137;-78
2021/01/23 03:05:04;;;;;;;125.80;45.10;;;;;;;0.54;82.73;99075.86;118541;1157;65151;-83
2021/01/23 03:07:31;;;;;;;134.10;42.60;;;;;;;0.52;82.63;99070.79;118603;1157;65139;-81
2021/01/23 03:09:57;;;;;;;104.00;38.20;;;;;;;0.52;82.89;99076.01;118542;1155;65188;-84
2021/01/23 03:12:23;;;;;;;102.07;40.07;;;;;;;0.50;82.82;99084.95;118431;1157;65235;-79
2021/01/23 03:14:50;;;;;;;119.77;43.07;;;;;;;0.49;83.47;99078.09;118647;1157;65197;-78
2021/01/23 03:17:16;;;;;;;120.93;43.23;;;;;;;0.49;83.62;99083.30;118496;1157;65139;-78
2021/01/23 03:19:42;;;;;;;114.70;41.17;;;;;;;0.46;82.92;99081.82;118661;1157;65166;-80
2021/01/23 03:22:08;;;;;;;125.25;44.00;;;;;;;0.46;83.32;99084.43;118793;1157;65156;-81
2021/01/23 03:24:35;;;;;;;121.33;42.07;;;;;;;0.46;83.05;99088.84;118877;1157;65130;-80
2021/01/23 03:27:02;;;;;;;123.07;47.40;;;;;;;0.45;83.31;99082.80;118846;1157;65210;-80
2021/01/23 03:29:28;;;;;;;118.37;43.57;;;;;;;0.43;84.03;99079.52;118709;1157;65134;-79
2021/01/23 03:31:54;;;;;;;120.45;43.80;;;;;;;0.44;83.74;99085.55;118354;1155;65812;-80
2021/01/23 03:34:21;;;;;;;124.23;45.63;;;;;;;0.44;84.51;99077.73;118636;1157;65143;-80
2021/01/23 03:36:47;;;;;;;128.07;44.42;;;;;;;0.43;84.12;99083.93;118540;1157;65134;-79
2021/01/23 03:39:13;;;;;;;118.73;41.13;;;;;;;0.43;84.32;99073.50;118772;1157;65024;-77
2021/01/23 03:41:40;;;;;;;122.30;41.97;;;;;;;0.43;84.31;99076.11;118473;1155;65194;-78
2021/01/23 03:44:06;;;;;;;121.70;43.27;;;;;;;0.44;84.94;99080.34;118497;1155;65778;-79
2021/01/23 03:46:34;;;;;;;138.23;49.00;;;;;;;0.43;84.68;99076.91;118479;1157;65239;-83
2021/01/23 03:49:00;;;;;;;109.77;41.47;;;;;;;0.46;84.71;99083.62;118924;1157;65166;-78
2021/01/23 03:51:27;;;;;;;127.50;42.97;;;;;;;0.47;84.50;99086.09;118708;1157;65146;-79
2021/01/23 03:53:53;;;;;;;114.92;41.75;;;;;;;0.50;84.60;99084.95;118939;1157;65053;-80
2021/01/23 03:56:19;;;;;;;121.22;43.98;;;;;;;0.51;84.54;99090.04;118677;1157;65244;-79
2021/01/23 03:58:46;;;;;;;122.73;40.60;;;;;;;0.54;84.60;99087.11;118730;1157;65537;-78
2021/01/23 04:01:12;;;;;;;135.27;46.20;;;;;;;0.55;84.83;99088.77;118548;1157;65111;-81
2021/01/23 04:03:39;;;;;;;138.32;44.53;;;;;;;0.57;85.49;99085.98;119214;1157;65015;-79
2021/01/23 04:06:05;;;;;;;137.15;44.80;;;;;;;0.59;84.98;99079.64;118418;1157;65113;-79
2021/01/23 04:08:32;;;;;;;115.93;42.47;;;;;;;0.64;84.69;99084.44;118430;1157;65216;-78
2021/01/23 04:10:59;;;;;;;133.80;47.47;;;;;;;0.65;84.77;99087.86;118473;1157;65088;-79
2021/01/23 04:13:25;;;;;;;126.80;43.60;;;;;;;0.66;84.85;99084.27;118353;1155;65132;-81
2021/01/23 04:15:53;;;;;;;118.37;40.67;;;;;;;0.68;84.84;99088.39;118752;1157;65095;-80
2021/01/23 04:18:21;;;;;;;123.15;44.30;;;;;;;0.71;84.30;99093.29;118790;1157;65132;-78
2021/01/23 04:20:47;;;;;;;123.70;44.45;;;;;;;0.72;84.36;99087.11;118873;1157;65121;-81
2021/01/23 04:23:13;;;;;;;141.77;45.87;;;;;;;0.73;85.20;99086.13;118456;1155;65202;-83
2021/01/23 04:25:39;;;;;;;142.60;47.00;;;;;;;0.74;84.69;99087.75;118474;1157;65120;-79
2021/01/23 04:28:05;;;;;;;115.10;41.83;;;;;;;0.75;85.15;99094.63;118696;1157;65524;-80
2021/01/23 04:30:32;;;;;;;139.72;49.33;;;;;;;0.77;85.35;99090.08;118536;1157;65212;-79
2021/01/23 04:32:58;;;;;;;138.93;47.67;;;;;;;0.79;85.06;99095.97;118548;1155;65095;-79
2021/01/23 04:35:25;;;;;;;149.80;45.30;;;;;;;0.80;85.40;99084.54;118487;1157;66236;-81
2021/01/23 04:37:51;;;;;;;121.07;42.37;;;;;;;0.82;84.70;99084.40;118418;1157;65137;-82
2021/01/23 04:40:43;;;;;;;138.07;47.00;;;;;;;0.84;84.62;99079.03;118718;1157;65116;-81
2021/01/23 04:43:09;;;;;;;153.13;47.23;;;;;;;0.85;84.91;99078.89;118699;1157;65082;-79
2021/01/23 04:45:36;;;;;;;135.73;43.70;;;;;;;0.86;84.61;99080.52;118670;1155;65217;-78
2021/01/23 04:48:02;;;;;;;130.23;44.10;;;;;;;0.86;84.86;99087.53;119309;1157;63827;-78
2021/01/23 04:50:36;;;;;;;151.13;46.27;;;;;;;0.85;84.25;99078.89;118965;1157;65200;-81
2021/01/23 04:53:04;;;;;;;133.10;43.63;;;;;;;0.86;84.72;99075.29;118800;1157;65211;-80
2021/01/23 04:55:30;;;;;;;143.75;44.70;;;;;;;0.89;85.09;99079.38;119314;1157;65121;-78
2021/01/23 04:57:57;;;;;;;144.83;49.13;;;;;;;0.90;84.72;99065.38;118438;1157;65136;-83
2021/01/23 05:00:34;;;;;;;138.07;44.97;;;;;;;0.93;84.52;99067.66;119618;1157;65111;-77
2021/01/23 05:03:23;;;;;;;145.57;47.33;;;;;;;0.97;84.76;99072.42;118664;1157;65130;-77
2021/01/23 05:06:06;;;;;;;138.77;45.53;;;;;;;0.99;84.69;99064.45;118592;1157;65165;-78
2021/01/23 05:08:36;;;;;;;143.87;47.60;;;;;;;0.99;83.82;99059.22;118586;1157;65608;-78
2021/01/23 05:11:15;;;;;;;181.53;52.50;;;;;;;0.95;84.36;99053.48;118722;1157;65120;-78
2021/01/23 05:14:10;;;;;;;181.43;51.77;;;;;;;0.96;84.59;99062.16;118680;1157;65196;-80
2021/01/23 05:16:37;;;;;;;203.80;54.55;;;;;;;0.95;84.48;99057.89;118435;1157;65130;-79
2021/01/23 05:19:05;;;;;;;176.40;52.25;;;;;;;0.96;84.26;99060.36;118656;1155;65127;-78
2021/01/23 05:21:35;;;;;;;198.57;54.17;;;;;;;0.96;84.28;99057.75;119233;1155;65017;-81
2021/01/23 05:24:10;;;;;;;177.80;50.03;;;;;;;0.93;83.88;99055.42;118830;1156;65098;-82
2021/01/23 05:26:37;;;;;;;170.30;50.50;;;;;;;0.89;83.94;99063.72;118736;1157;65173;-79
2021/01/23 05:29:11;;;;;;;184.17;52.10;;;;;;;0.88;84.18;99056.87;118799;1157;65127;-78
2021/01/23 05:31:39;;;;;;;158.83;45.07;;;;;;;0.84;84.31;99055.54;118687;1157;65118;-83
2021/01/23 05:34:26;;;;;;;185.53;54.40;;;;;;;0.81;84.44;99056.67;118624;1157;65152;-77
2021/01/23 05:36:56;;;;;;;153.75;47.00;;;;;;;0.78;84.44;99054.34;118783;1157;65180;-79
2021/01/23 05:39:51;;;;;;;159.43;47.57;;;;;;;0.77;84.11;99060.55;118375;1157;64718;-78
2021/01/23 05:42:25;;;;;;;183.47;53.90;;;;;;;0.74;84.48;99063.45;118715;1157;65124;-77
2021/01/23 05:45:11;;;;;;;179.50;52.67;;;;;;;0.74;84.75;99060.84;118560;1157;65188;-82
2021/01/23 05:47:38;;;;;;;154.33;45.80;;;;;;;0.75;84.37;99059.89;118532;1157;65127;-79
2021/01/23 05:50:08;;;;;;;181.40;53.67;;;;;;;0.72;84.34;99055.80;118807;1157;65139;-79
2021/01/23 05:52:37;;;;;;;162.13;47.03;;;;;;;0.70;84.32;99060.34;118852;1157;65136;-82
2021/01/23 05:55:13;;;;;;;159.57;47.47;;;;;;;0.69;84.20;99061.30;118900;1157;63076;-79
2021/01/23 05:57:39;;;;;;;180.60;47.70;;;;;;;0.66;84.73;99069.45;118450;1157;65113;-79
2021/01/23 06:00:07;;;;;;;173.63;47.43;;;;;;;0.64;84.31;99068.78;118266;1157;65111;-80
2021/01/23 06:02:35;;;;;;;174.60;47.10;;;;;;;0.62;85.09;99062.89;119161;1157;66237;-81
2021/01/23 06:05:02;;;;;;;195.97;55.47;;;;;;;0.61;85.30;99066.45;118781;1157;65136;-78
2021/01/23 06:07:47;;;;;;;168.80;49.35;;;;;;;0.64;84.87;99068.78;118508;1157;65198;-78
2021/01/23 06:10:22;;;;;;;164.10;42.50;;;;;;;0.62;85.09;99070.72;118872;1157;65049;-81
2021/01/23 06:12:49;;;;;;;175.97;52.00;;;;;;;0.63;84.74;99074.95;118676;1157;65114;-81
2021/01/23 06:15:35;;;;;;;158.13;47.33;;;;;;;0.67;85.25;99075.48;118376;1155;65297;-82
2021/01/23 06:18:29;;;;;;;135.90;39.23;;;;;;;0.70;85.57;99077.77;118710;1157;65151;-82
2021/01/23 06:25:16;;;;;;;193.90;56.83;;;;;;;0.70;85.09;99086.45;119375;1157;65050;-79
2021/01/23 06:31:37;;;;;;;216.73;61.77;;;;;;;0.79;85.37;99088.14;118535;1155;65278;-82
2021/01/23 06:34:22;;;;;;;171.30;50.43;;;;;;;;;;118836;1157;65078;-78
2021/01/23 06:37:16;;;;;;;175.40;55.00;;;;;;;0.84;85.20;99089.47;118746;1157;65130;-77
2021/01/23 06:40:01;;;;;;;173.63;54.43;;;;;;;0.84;84.58;99092.09;119715;1155;65261;-78
2021/01/23 06:42:28;;;;;;;177.37;55.90;;;;;;;0.79;85.14;99090.75;118992;1157;65130;-78
2021/01/23 06:44:54;;;;;;;189.80;55.23;;;;;;;0.78;84.77;99094.31;118391;1157;65216;-78
2021/01/23 06:47:21;;;;;;;161.17;46.70;;;;;;;0.78;85.36;99094.31;118891;1157;65182;-79
2021/01/23 06:49:47;;;;;;;117.53;39.40;;;;;;;0.78;85.19;99103.94;119255;1157;65134;-82
2021/01/23 06:52:13;;;;;;;151.53;44.80;;;;;;;0.77;85.22;99092.69;119241;1157;65050;-80
2021/01/23 06:54:45;;;;;;;154.23;41.83;;;;;;;0.78;86.06;99104.75;118735;1157;65130;-79
2021/01/23 06:57:12;;;;;;;173.75;53.20;;;;;;;0.77;85.65;99092.69;118710;1157;65031;-81
2021/01/23 06:59:39;;;;;;;115.93;34.73;;;;;;;0.78;85.92;99088.28;118534;1157;65130;-78
2021/01/23 07:02:14;;;;;;;150.90;44.75;;;;;;;0.74;86.13;99086.94;118400;1157;65073;-81
2021/01/23 07:05:00;;;;;;;103.90;29.10;;;;;;;0.71;86.14;99077.63;119555;1157;65063;-78
2021/01/23 07:07:54;;;;;;;134.70;41.55;;;;;;;0.71;86.66;99088.07;119064;1157;65071;-78
2021/01/23 07:10:20;;;;;;;111.93;30.33;;;;;;;0.70;86.66;99078.62;118792;1157;65223;-80
2021/01/23 07:12:47;;;;;;;144.77;41.40;;;;;;;0.72;85.89;99083.66;118517;1157;65147;-80
2021/01/23 07:15:24;;;;;;;154.25;40.05;;;;;;;0.70;86.14;99078.62;118864;1157;65156;-83
2021/01/23 07:17:50;;;;;;;122.60;37.80;;;;;;;0.69;86.34;99076.96;119642;1157;65724;-80
2021/01/23 07:20:17;;;;;;;141.90;45.13;;;;;;;0.70;86.11;99076.00;119784;1157;65133;-80
2021/01/23 07:22:45;;;;;;;156.07;45.60;;;;;;;0.71;85.58;99066.38;118874;1157;65702;-80
2021/01/23 07:25:48;;;;;;;140.27;41.00;;;;;;;0.73;85.66;99060.03;119580;1157;65130;-79
2021/01/23 07:28:18;;;;;;;139.60;45.00;;;;;;;0.73;85.40;99054.81;119013;1157;65138;-79
2021/01/23 07:30:45;;;;;;;82.17;22.63;;;;;;;0.73;85.74;99054.81;118716;1155;65238;-83
2021/01/23 07:33:42;;;;;;;143.40;46.43;;;;;;;0.75;85.43;99058.09;118921;1157;66310;-79
2021/01/23 07:36:35;;;;;;;153.87;47.73;;;;;;;0.82;85.96;99053.08;119530;1157;65303;-79
2021/01/23 07:39:38;;;;;;;145.07;46.90;;;;;;;0.89;85.86;99043.65;118938;1157;65511;-79
2021/01/23 07:42:32;;;;;;;151.73;50.93;;;;;;;1.01;85.70;99052.05;118731;1155;65129;-79
2021/01/23 07:45:07;;;;;;;146.13;45.93;;;;;;;1.09;85.72;99049.50;118962;1157;65239;-82
2021/01/23 07:47:34;;;;;;;107.83;34.87;;;;;;;1.16;85.27;99041.86;118921;1157;65002;-77
2021/01/23 07:50:06;;;;;;;115.30;40.40;;;;;;;1.18;85.46;99037.30;118523;1157;65771;-80
2021/01/23 07:52:34;;;;;;;149.33;44.87;;;;;;;1.19;84.62;99039.77;118572;1157;65153;-79
2021/01/23 07:55:00;;;;;;;130.33;41.10;;;;;;;1.19;84.42;99042.38;119075;1157;65108;-79
2021/01/23 07:57:26;;;;;;;143.97;47.10;;;;;;;1.18;84.41;99043.34;118556;1157;65155;-83
2021/01/23 08:00:06;;;;;;;140.07;46.90;;;;;;;1.15;84.13;99037.62;119524;1157;65095;-83
2021/01/23 08:02:50;;;;;;;142.40;46.63;;;;;;;1.13;84.49;99029.94;119331;1157;65137;-79
2021/01/23 08:05:18;;;;;;;144.80;49.67;;;;;;;1.13;84.61;99021.30;118868;1157;65132;-81
2021/01/23 08:07:45;;;;;;;119.80;35.95;;;;;;;1.13;84.78;99022.10;118598;1157;65165;-83
2021/01/23 08:10:11;;;;;;;133.70;41.23;;;;;;;1.12;84.54;99017.03;118670;1157;65175;-79
2021/01/23 08:12:50;;;;;;;124.13;37.00;;;;;;;1.10;84.61;99016.36;119166;1157;65043;-79
2021/01/23 08:15:42;;;;;;;161.33;48.13;;;;;;;1.08;85.18;99013.90;118892;1157;65143;-79
2021/01/23 08:18:26;;;;;;;143.10;39.33;;;;;;;1.09;84.93;99014.73;118785;1157;65156;-79
2021/01/23 08:20:54;;;;;;;134.93;39.90;;;;;;;1.10;85.06;99017.17;118776;1157;65108;-80
2021/01/23 08:23:32;;;;;;;132.70;40.20;;;;;;;1.15;84.64;99027.98;118893;1157;65104;-80
2021/01/23 08:25:59;;;;;;;105.67;34.90;;;;;;;1.21;85.17;99022.14;119221;1157;65133;-78
2021/01/23 08:28:48;;;;;;;95.20;28.10;;;;;;;1.29;85.18;99030.98;118090;1157;65146;-78
2021/01/23 08:31:38;;;;;;;110.50;31.65;;;;;;;1.31;84.80;99026.42;118941;1157;65143;-79
2021/01/23 08:34:04;;;;;;;126.75;32.40;;;;;;;1.35;84.59;99028.56;119090;1157;65018;-78
2021/01/23 08:36:31;;;;;;;134.40;41.17;;;;;;;1.39;84.44;99029.08;118430;1155;64991;-78
2021/01/23 08:39:04;;;;;;;123.25;34.70;;;;;;;1.45;84.30;99022.42;118340;1157;65127;-80
2021/01/23 08:41:32;;;;;;;89.90;23.00;;;;;;;1.47;83.99;99021.27;118777;1157;65015;-79
2021/01/23 08:43:59;;;;;;;143.73;42.47;;;;;;;1.53;84.03;99027.64;118918;1157;66250;-78
2021/01/23 08:46:25;;;;;;;123.20;42.17;;;;;;;1.61;83.87;99043.36;118244;1157;65152;-78
2021/01/23 08:48:54;;;;;;;126.80;40.17;;;;;;;1.68;83.75;99038.31;118775;1157;65104;-78
2021/01/23 08:51:22;;;;;;;105.87;32.33;;;;;;;1.74;83.37;99037.69;118565;1157;65162;-80
2021/01/23 08:54:21;;;;;;;144.60;42.30;;;;;;;1.76;83.20;99035.73;118740;1157;65156;-79
2021/01/23 08:56:48;;;;;;;118.83;36.43;;;;;;;1.79;82.94;99040.66;118452;1157;65104;-79
2021/01/23 08:59:14;;;;;;;127.33;40.33;;;;;;;1.81;83.23;99036.09;118808;1157;66266;-78
2021/01/23 09:01:41;;;;;;;104.30;33.07;;;;;;;1.83;83.03;99032.33;118582;1157;65159;-80
2021/01/23 09:04:08;;;;;;;102.40;32.17;;;;;;;1.83;83.15;99031.52;118336;1157;65567;-79
2021/01/23 09:06:35;;;;;;;77.53;25.47;;;;;;;1.80;82.80;99026.59;118336;1157;65141;-81
2021/01/23 09:09:19;;;;;;;116.13;33.80;;;;;;;1.78;82.96;99034.59;118319;1155;65118;-79
2021/01/23 09:12:26;;;;;;;135.55;38.15;;;;;;;1.79;83.06;99051.12;118341;1157;65178;-77
2021/01/23 09:15:26;;;;;;;145.00;40.87;;;;;;;1.85;82.86;99050.48;118510;1157;65506;-78
2021/01/23 09:17:52;;;;;;;116.93;35.52;;;;;;;1.92;82.76;99046.24;118571;1157;65135;-77
2021/01/23 09:20:37;;;;;;;121.92;40.23;;;;;;;1.96;82.54;99042.33;118942;1157;65043;-78
2021/01/23 09:23:13;;;;;;;87.73;24.30;;;;;;;2.03;82.18;99045.12;119000;1157;65248;-77
2021/01/23 09:25:42;;;;;;;147.40;42.83;;;;;;;2.07;82.19;99053.47;118426;1157;65134;-78
2021/01/23 09:28:09;;;;;;;116.57;36.40;;;;;;;2.13;82.18;99063.30;118449;1156;65172;-77
2021/01/23 09:30:35;;;;;;;110.90;39.97;;;;;;;2.24;82.00;99057.75;118421;1156;65127;-78
2021/01/23 09:33:17;;;;;;;123.65;41.95;;;;;;;2.34;81.53;99058.42;118443;1157;65232;-77
2021/01/23 09:36:00;;;;;;;118.63;41.87;;;;;;;2.43;81.95;99060.05;118497;1157;65522;-79
2021/01/23 09:38:27;;;;;;;138.77;42.53;;;;;;;2.50;80.83;99054.16;118492;1157;65178;-77
2021/01/23 09:40:53;;;;;;;104.63;33.23;;;;;;;2.56;80.49;99064.80;119634;1157;65156;-78
2021/01/23 09:43:20;;;;;;;130.20;40.63;;;;;;;2.60;80.15;99060.06;119196;1157;65087;-78
2021/01/23 09:45:46;;;;;;;113.30;39.10;;;;;;;2.66;80.48;99056.80;118612;1157;65242;-79
2021/01/23 09:48:13;;;;;;;118.37;39.23;;;;;;;2.73;80.47;99060.38;118610;1157;65171;-78
2021/01/23 09:50:40;;;;;;;101.75;38.90;;;;;;;2.80;79.47;99058.73;118345;1157;65127;-79
2021/01/23 09:53:07;;;;;;;104.10;38.60;;;;;;;2.90;79.42;99065.61;118567;1155;65127;-77
2021/01/23 09:55:33;;;;;;;114.93;38.50;;;;;;;2.98;80.13;99060.37;118405;1157;65596;-79
2021/01/23 09:58:00;;;;;;;102.27;37.27;;;;;;;3.04;78.33;99062.33;118245;1157;65169;-76
2021/01/23 10:00:26;;;;;;;89.37;26.10;;;;;;;3.08;78.38;99053.12;118557;1157;65134;-78
2021/01/23 10:02:54;;;;;;;110.65;34.65;;;;;;;3.13;78.56;99040.35;118253;1157;65178;-78
2021/01/23 10:05:20;;;;;;;87.27;31.30;;;;;;;3.12;77.24;99033.46;118597;1157;65140;-82
2021/01/23 10:07:46;;;;;;;93.50;33.00;;;;;;;3.18;77.38;99043.27;118346;1157;65143;-80
2021/01/23 10:10:13;;;;;;;88.83;31.43;;;;;;;3.23;77.31;99040.98;118264;1157;65087;-77
2021/01/23 10:12:40;;;;;;;98.70;34.45;;;;;;;3.32;77.48;99040.97;118216;1157;65296;-82
2021/01/23 10:15:06;;;;;;;107.10;35.83;;;;;;;3.43;76.16;99040.59;118642;1157;65133;-79
2021/01/23 10:17:33;;;;;;;129.97;42.10;;;;;;;3.54;77.70;99042.83;118299;1157;65155;-79
2021/01/23 10:23:34;;;;;;;119.33;38.10;;;;;;;3.76;76.69;99038.66;118334;1155;66313;-78
2021/01/23 10:26:00;;;;;;;136.40;42.10;;;;;;;3.83;75.74;99036.16;118465;1157;66134;-79
2021/01/23 10:28:27;;;;;;;103.15;37.75;;;;;;;3.94;77.24;99035.76;118261;1157;65302;-80
2021/01/23 10:30:53;;;;;;;152.80;42.25;;;;;;;4.30;80.86;99032.58;118398;1157;65200;-78
2021/01/23 10:33:31;;;;;;;91.83;37.20;;;;;;;4.51;74.10;99028.49;118423;1157;65162;-77
2021/01/23 10:35:58;;;;;;;94.43;39.13;;;;;;;4.57;72.74;99017.25;118315;1157;65177;-78
2021/01/23 10:38:24;;;;;;;77.67;31.13;;;;;;;4.58;70.29;99019.71;118589;1157;65236;-78
2021/01/23 10:40:50;;;;;;;94.23;36.30;;;;;;;4.63;70.82;99024.42;119106;1157;65162;-77
2021/01/23 10:43:16;;;;;;;89.77;38.87;;;;;;;4.66;70.51;99017.02;118914;1157;65127;-78
2021/01/23 10:45:42;;;;;;;88.95;31.90;;;;;;;4.72;70.19;99010.25;118696;1157;65130;-79
2021/01/23 10:48:09;;;;;;;75.92;32.58;;;;;;;4.78;70.46;99004.28;118449;1157;65246;-78
2021/01/23 10:50:36;;;;;;;84.10;31.93;;;;;;;4.84;68.35;99002.73;118532;1156;65236;-78
2021/01/23 10:53:02;;;;;;;75.27;25.47;;;;;;;4.83;68.30;98996.66;118555;1157;65109;-78
2021/01/23 10:55:53;;;;;;;68.73;25.73;;;;;;;4.86;68.36;99000.73;118997;1157;65090;-79
2021/01/23 10:58:46;;;;;;;81.93;33.10;;;;;;;4.81;66.96;98998.66;118617;1157;65018;-77
2021/01/23 11:01:13;;;;;;;80.05;31.25;;;;;;;4.85;67.12;98991.23;118286;1157;65528;-77
2021/01/23 11:03:39;;;;;;;78.57;31.50;;;;;;;4.86;66.98;98996.30;118426;1155;66313;-78
2021/01/23 11:06:05;;;;;;;74.23;27.73;;;;;;;4.93;68.21;98993.79;118365;1157;65399;-77
2021/01/23 11:08:33;;;;;;;58.65;27.60;;;;;;;4.98;66.66;98987.98;118484;1157;65075;-77
2021/01/23 11:10:59;;;;;;;72.07;31.27;;;;;;;5.03;67.35;98985.62;118314;1157;65212;-76
2021/01/23 11:13:26;;;;;;;76.17;29.50;;;;;;;5.02;66.41;98979.55;118357;1157;65160;-78
2021/01/23 11:15:52;;;;;;;64.70;29.23;;;;;;;5.04;66.59;98971.50;118338;1157;63768;-79
2021/01/23 11:18:25;;;;;;;76.80;30.57;;;;;;;5.05;66.31;98967.86;118268;1157;65204;-78
2021/01/23 11:20:51;;;;;;;62.13;27.40;;;;;;;5.07;65.32;98976.38;118280;1157;65098;-76
2021/01/23 11:23:18;;;;;;;58.87;23.37;;;;;;;5.00;64.19;98970.23;118497;1156;67170;-79
2021/01/23 11:25:44;;;;;;;67.77;26.60;;;;;;;4.99;64.92;98955.44;118604;1157;65134;-77
2021/01/23 11:28:10;;;;;;;70.23;28.53;;;;;;;5.01;65.46;98956.08;118664;1157;65235;-77
2021/01/23 11:30:38;;;;;;;64.80;30.03;;;;;;;5.05;65.92;98962.60;118462;1157;65156;-76
2021/01/23 11:33:09;;;;;;;57.87;23.60;;;;;;;5.03;65.14;98957.52;118735;1157;65028;-79
2021/01/23 11:35:36;;;;;;;68.60;27.53;;;;;;;4.97;64.95;98954.80;118418;1157;65503;-78
2021/01/23 11:38:02;;;;;;;60.30;28.23;;;;;;;4.98;65.59;98961.70;118863;1157;65103;-79
2021/01/23 11:40:29;;;;;;;61.70;27.35;;;;;;;4.99;65.26;98952.81;118391;1157;65143;-77
2021/01/23 11:42:55;;;;;;;69.73;28.33;;;;;;;5.01;65.97;98945.56;118328;1157;65056;-80
2021/01/23 11:45:22;;;;;;;80.47;31.43;;;;;;;5.08;66.64;98946.48;118303;1157;65167;-82
2021/01/23 11:47:48;;;;;;;65.10;30.77;;;;;;;5.23;66.10;98938.59;118370;1155;65130;-78